createdAt,value
2022-09-03T00:01:15.200Z,19.57
2022-09-03T00:06:42.625Z,19.39
2022-09-03T00:12:12.671Z,19.43
2022-09-03T00:17:37.454Z,19.41
2022-09-03T00:23:02.482Z,19.28
2022-09-03T00:28:30.189Z,19.30
2022-09-03T00:33:54.325Z,19.22
2022-09-03T00:39:20.712Z,18.95
2022-09-03T00:44:55.623Z,19.14
2022-09-03T00:50:23.640Z,19.00
2022-09-03T00:55:51.363Z,18.94
2022-09-03T01:01:21.438Z,18.84
2022-09-03T01:06:50.271Z,18.90
2022-09-03T01:12:20.202Z,18.74
2022-09-03T01:17:57.094Z,18.69
2022-09-03T01:23:48.967Z,18.68
2022-09-03T01:29:21.717Z,18.64
2022-09-03T01:34:58.591Z,18.48
2022-09-03T01:40:30.783Z,18.48
2022-09-03T01:46:00.745Z,18.15
2022-09-03T01:51:38.787Z,18.35
2022-09-03T01:57:35.183Z,18.18
2022-09-03T02:03:05.723Z,18.00
2022-09-03T02:08:31.454Z,18.04
2022-09-03T02:13:57.754Z,18.08
2022-09-03T02:19:21.071Z,18.07
2022-09-03T02:24:45.820Z,18.08
2022-09-03T02:30:10.346Z,17.75
2022-09-03T02:35:33.500Z,17.86
2022-09-03T02:40:58.219Z,17.98
2022-09-03T02:46:25.671Z,17.83
2022-09-03T02:51:48.962Z,17.82
2022-09-03T02:57:15.646Z,17.80
2022-09-03T03:02:39.071Z,17.80
2022-09-03T03:08:02.546Z,17.67
2022-09-03T03:13:27.595Z,17.74
2022-09-03T03:18:50.842Z,17.68
2022-09-03T03:24:14.083Z,17.57
2022-09-03T03:29:39.561Z,17.45
2022-09-03T03:35:02.760Z,17.49
2022-09-03T03:40:26.308Z,17.41
2022-09-03T03:45:59.015Z,17.48
2022-09-03T03:51:22.282Z,17.42
2022-09-03T03:56:46.908Z,17.35
2022-09-03T04:02:20.213Z,17.24
2022-09-03T04:07:44.488Z,17.27
2022-09-03T04:13:07.638Z,17.25
2022-09-03T04:18:33.186Z,17.10
2022-09-03T04:23:57.035Z,17.22
2022-09-03T04:29:21.988Z,17.05
2022-09-03T04:34:46.593Z,17.15
2022-09-03T04:40:10.497Z,17.16
2022-09-03T04:45:33.775Z,17.09
2022-09-03T04:51:05.417Z,16.87
2022-09-03T04:56:30.856Z,16.94
2022-09-03T05:01:54.068Z,16.84
2022-09-03T05:07:20.405Z,16.89
2022-09-03T05:12:45.393Z,16.97
2022-09-03T05:18:08.613Z,17.09
2022-09-03T05:23:37.570Z,17.05
2022-09-03T05:29:04.336Z,17.13
2022-09-03T05:34:27.846Z,17.05
2022-09-03T05:39:52.552Z,17.24
2022-09-03T05:45:15.896Z,17.16
2022-09-03T05:50:39.062Z,17.03
2022-09-03T05:56:07.141Z,17.03
2022-09-03T06:01:32.111Z,16.97
2022-09-03T06:06:55.291Z,16.96
2022-09-03T06:12:19.809Z,16.85
2022-09-03T06:17:43.060Z,17.01
2022-09-03T06:23:06.237Z,17.10
2022-09-03T06:28:31.808Z,17.17
2022-09-03T06:33:58.580Z,17.18
2022-09-03T06:39:24.760Z,17.25
2022-09-03T06:44:49.326Z,17.31
2022-09-03T06:50:12.526Z,17.34
2022-09-03T06:55:39.946Z,17.70
2022-09-03T07:01:06.850Z,18.32
2022-09-03T07:06:31.505Z,19.00
2022-09-03T07:11:54.678Z,19.19
2022-09-03T07:17:19.329Z,19.18
2022-09-03T07:22:42.524Z,19.73
2022-09-03T07:28:06.928Z,19.93
2022-09-03T07:33:33.968Z,20.21
2022-09-03T07:38:58.507Z,20.24
2022-09-03T07:44:22.803Z,20.37
2022-09-03T07:49:48.068Z,20.47
2022-09-03T07:55:12.306Z,20.47
2022-09-03T08:00:35.635Z,20.90
2022-09-03T08:06:03.781Z,21.17
2022-09-03T08:11:28.441Z,21.29
2022-09-03T08:16:51.759Z,21.11
2022-09-03T08:22:16.336Z,21.31
2022-09-03T08:27:39.703Z,21.56
2022-09-03T08:33:04.904Z,21.38
2022-09-03T08:38:29.472Z,21.87
2022-09-03T08:44:07.043Z,22.13
2022-09-03T08:49:34.231Z,22.24
2022-09-03T08:55:03.168Z,22.22
2022-09-03T09:00:26.450Z,22.37
2022-09-03T09:05:55.299Z,22.34
2022-09-03T09:11:30.413Z,22.85
2022-09-03T09:17:02.591Z,22.87
2022-09-03T09:22:29.503Z,22.76
2022-09-03T09:27:58.427Z,22.97
2022-09-03T09:33:23.042Z,23.11
2022-09-03T09:38:48.873Z,23.27
2022-09-03T09:50:25.125Z,23.67
2022-09-03T09:55:51.360Z,23.61
2022-09-03T10:01:19.990Z,23.25
2022-09-03T10:06:57.863Z,23.28
2022-09-03T10:12:25.886Z,23.31
2022-09-03T10:17:56.686Z,23.55
2022-09-03T10:23:23.527Z,24.05
2022-09-03T10:28:50.818Z,24.06
2022-09-03T10:34:24.852Z,24.18
2022-09-03T10:40:00.431Z,24.33
2022-09-03T10:45:35.192Z,24.43
2022-09-03T10:51:07.713Z,24.23
2022-09-03T10:56:34.249Z,24.72
2022-09-03T11:02:07.862Z,24.95
2022-09-03T11:07:38.677Z,24.94
2022-09-03T11:13:06.879Z,24.89
2022-09-03T11:18:33.910Z,24.59
2022-09-03T11:24:12.229Z,24.56
2022-09-03T11:29:43.085Z,24.84
2022-09-03T11:35:15.675Z,24.59
2022-09-03T11:40:41.922Z,24.67
2022-09-03T11:46:12.912Z,24.81
2022-09-03T11:51:37.881Z,25.00
2022-09-03T11:57:13.257Z,25.05
2022-09-03T12:02:39.139Z,24.93
2022-09-03T12:08:11.962Z,25.18
2022-09-03T12:13:47.990Z,25.26
2022-09-03T12:19:16.795Z,25.54
2022-09-03T12:24:40.069Z,25.69
2022-09-03T12:30:06.873Z,25.86
2022-09-03T12:41:28.075Z,25.98
2022-09-03T12:52:47.631Z,26.17
2022-09-03T12:58:14.209Z,26.34
2022-09-03T13:03:48.095Z,26.32
2022-09-03T13:09:11.713Z,26.53
2022-09-03T13:14:44.883Z,26.47
2022-09-03T13:20:23.242Z,26.55
2022-09-03T13:25:54.628Z,26.56
2022-09-03T13:31:28.254Z,26.71
2022-09-03T13:36:56.008Z,26.68
2022-09-03T13:42:24.223Z,26.81
2022-09-03T13:48:03.719Z,26.85
2022-09-03T13:53:37.024Z,26.88
2022-09-03T13:59:03.297Z,26.88
2022-09-03T14:04:31.095Z,27.09
2022-09-03T14:10:00.930Z,27.04
2022-09-03T14:15:29.466Z,27.11
2022-09-03T14:20:57.851Z,27.04
2022-09-03T14:26:38.621Z,27.05
2022-09-03T14:32:35.693Z,27.08
2022-09-03T14:38:16.676Z,27.18
2022-09-03T14:44:00.219Z,27.14
2022-09-03T14:49:49.936Z,27.16
2022-09-03T14:55:24.830Z,27.11
2022-09-03T15:01:02.451Z,27.04
2022-09-03T15:06:33.918Z,27.14
2022-09-03T15:11:59.789Z,27.30
2022-09-03T15:17:38.755Z,27.17
2022-09-03T15:23:18.518Z,27.09
2022-09-03T15:28:52.063Z,27.28
2022-09-03T15:34:31.133Z,27.26
2022-09-03T15:40:03.229Z,27.25
2022-09-03T15:45:36.085Z,27.26
2022-09-03T15:51:10.527Z,27.05
2022-09-03T15:56:36.884Z,27.21
2022-09-03T16:02:05.603Z,27.46
2022-09-03T16:07:41.076Z,27.36
2022-09-03T16:13:07.890Z,27.39
2022-09-03T16:18:34.718Z,27.38
2022-09-03T16:24:00.512Z,27.29
2022-09-03T16:29:27.727Z,27.22
2022-09-03T16:34:59.250Z,27.18
2022-09-03T16:40:32.928Z,27.10
2022-09-03T16:46:04.562Z,26.86
2022-09-03T16:51:34.999Z,26.80
2022-09-03T16:57:09.450Z,26.90
2022-09-03T17:02:52.513Z,26.92
2022-09-03T17:08:21.635Z,26.84
2022-09-03T17:13:58.357Z,26.38
2022-09-03T17:19:26.261Z,26.57
2022-09-03T17:24:54.864Z,26.54
2022-09-03T17:30:24.126Z,26.53
2022-09-03T17:35:52.539Z,26.24
2022-09-03T17:41:22.672Z,26.23
2022-09-03T17:46:50.150Z,26.11
2022-09-03T17:52:21.437Z,25.97
2022-09-03T17:57:46.964Z,25.75
2022-09-03T18:03:15.224Z,25.65
2022-09-03T18:08:45.747Z,25.44
2022-09-03T18:14:16.634Z,25.24
2022-09-03T18:20:05.272Z,25.20
2022-09-03T18:25:47.465Z,25.00
2022-09-03T18:31:32.537Z,24.86
2022-09-03T18:37:17.761Z,24.84
2022-09-03T18:43:08.599Z,24.79
2022-09-03T18:48:54.711Z,24.68
2022-09-03T18:55:06.692Z,24.55
2022-09-03T19:00:49.467Z,24.37
2022-09-03T19:06:37.611Z,24.22
2022-09-03T19:12:30.346Z,24.23
2022-09-03T19:18:29.558Z,24.16
2022-09-03T19:24:14.809Z,24.03
2022-09-03T19:30:10.981Z,23.91
2022-09-03T19:35:57.806Z,23.83
2022-09-03T19:41:42.352Z,23.79
2022-09-03T19:47:26.144Z,23.50
2022-09-03T19:53:10.112Z,23.59
2022-09-03T19:58:52.468Z,23.59
2022-09-03T20:04:35.204Z,23.47
2022-09-03T20:10:21.701Z,23.45
2022-09-03T20:15:52.263Z,23.26
2022-09-03T20:21:24.476Z,23.23
2022-09-03T20:26:53.109Z,23.25
2022-09-03T20:32:27.569Z,22.93
2022-09-03T20:37:58.534Z,23.04
2022-09-03T20:43:56.483Z,23.06
2022-09-03T20:49:28.992Z,22.86
2022-09-03T20:54:58.925Z,22.96
2022-09-03T21:00:23.200Z,22.98
2022-09-03T21:05:57.515Z,22.88
2022-09-03T21:11:30.024Z,22.77
2022-09-03T21:17:00.215Z,22.74
2022-09-03T21:22:30.427Z,22.65
2022-09-03T21:27:58.142Z,22.57
2022-09-03T21:33:23.109Z,22.40
2022-09-03T21:38:49.079Z,22.22
2022-09-03T21:44:17.807Z,22.06
2022-09-03T21:49:53.149Z,21.85
2022-09-03T21:55:22.322Z,21.79
2022-09-03T22:00:47.546Z,21.77
2022-09-03T22:06:15.512Z,21.61
2022-09-03T22:12:03.962Z,21.76
2022-09-03T22:17:37.314Z,21.75
2022-09-03T22:23:05.936Z,21.83
2022-09-03T22:28:32.479Z,21.85
2022-09-03T22:34:01.807Z,21.83
2022-09-03T22:39:31.310Z,21.75
2022-09-03T22:45:08.385Z,21.86
2022-09-03T22:50:39.666Z,21.85
2022-09-03T22:56:07.051Z,21.78
2022-09-03T23:01:34.571Z,21.55
2022-09-03T23:07:03.677Z,21.40
2022-09-03T23:12:34.830Z,20.86
2022-09-03T23:18:06.068Z,21.24
2022-09-03T23:23:34.911Z,21.33
2022-09-03T23:29:04.283Z,21.34
2022-09-03T23:34:28.523Z,21.38
2022-09-03T23:40:04.851Z,21.30
2022-09-03T23:45:38.204Z,21.34
2022-09-03T23:51:09.579Z,21.19
2022-09-03T23:56:55.909Z,21.02
